createdAt,value
2022-10-04T00:02:14.611Z,101236.84
2022-10-04T00:04:48.484Z,101238.66
2022-10-04T00:07:22.266Z,101235.75
2022-10-04T00:09:54.576Z,101234.78
2022-10-04T00:12:27.297Z,101231.72
2022-10-04T00:14:59.974Z,101244.50
2022-10-04T00:17:29.076Z,101239.31
2022-10-04T00:19:56.255Z,101240.34
2022-10-04T00:22:30.236Z,101242.16
2022-10-04T00:25:01.753Z,101236.81
2022-10-04T00:27:29.009Z,101243.16
2022-10-04T00:30:02.200Z,101238.78
2022-10-04T00:32:31.168Z,101239.66
2022-10-04T00:34:59.896Z,101242.50
2022-10-04T00:37:27.437Z,101238.44
2022-10-04T00:40:10.896Z,101235.03
2022-10-04T00:42:45.543Z,101231.59
2022-10-04T00:45:15.426Z,101240.84
2022-10-04T00:47:48.483Z,101253.59
2022-10-04T00:50:21.896Z,101247.53
2022-10-04T00:52:52.260Z,101251.47
2022-10-04T00:55:45.528Z,101255.44
2022-10-04T00:58:18.636Z,101246.88
2022-10-04T01:00:48.345Z,101247.88
2022-10-04T01:03:18.675Z,101250.44
2022-10-04T01:05:49.734Z,101251.28
2022-10-04T01:08:22.807Z,101249.53
2022-10-04T01:10:52.737Z,101248.66
2022-10-04T01:13:31.131Z,101245.97
2022-10-04T01:16:13.618Z,101246.88
2022-10-04T01:18:41.143Z,101245.75
2022-10-04T01:21:20.851Z,101240.13
2022-10-04T01:23:47.960Z,101244.53
2022-10-04T01:26:30.492Z,101235.50
2022-10-04T01:28:58.940Z,101237.41
2022-10-04T01:31:29.671Z,101226.75
2022-10-04T01:33:57.509Z,101227.50
2022-10-04T01:36:25.049Z,101223.78
2022-10-04T01:38:52.197Z,101228.84
2022-10-04T01:41:21.885Z,101231.72
2022-10-04T01:43:50.544Z,101231.00
2022-10-04T01:46:21.122Z,101224.28
2022-10-04T01:48:48.358Z,101219.84
2022-10-04T01:51:15.464Z,101227.06
2022-10-04T01:54:05.854Z,101231.41
2022-10-04T01:56:38.631Z,101224.44
2022-10-04T01:59:07.700Z,101220.81
2022-10-04T02:01:40.080Z,101217.34
2022-10-04T02:04:18.610Z,101213.94
2022-10-04T02:06:54.286Z,101220.13
2022-10-04T02:09:38.649Z,101209.59
2022-10-04T02:12:06.661Z,101214.28
2022-10-04T02:14:36.575Z,101214.44
2022-10-04T02:17:06.062Z,101215.69
2022-10-04T02:19:35.813Z,101211.44
2022-10-04T02:22:04.181Z,101206.81
2022-10-04T02:24:33.953Z,101204.47
2022-10-04T02:27:01.234Z,101203.44
2022-10-04T02:29:28.501Z,101207.75
2022-10-04T02:32:14.998Z,101203.53
2022-10-04T02:34:42.360Z,101196.69
2022-10-04T02:37:09.652Z,101196.59
2022-10-04T02:39:38.927Z,101198.59
2022-10-04T02:42:09.124Z,101202.81
2022-10-04T02:44:41.133Z,101205.06
2022-10-04T02:47:08.799Z,101197.19
2022-10-04T02:49:47.839Z,101204.47
2022-10-04T02:52:27.410Z,101214.75
2022-10-04T02:55:03.632Z,101215.03
2022-10-04T02:57:32.716Z,101210.53
2022-10-04T03:00:09.128Z,101198.78
2022-10-04T03:02:36.479Z,101202.56
2022-10-04T03:05:06.986Z,101212.19
2022-10-04T03:07:35.279Z,101214.56
2022-10-04T03:10:03.088Z,101211.97
2022-10-04T03:12:31.775Z,101216.09
2022-10-04T03:14:59.080Z,101220.22
2022-10-04T03:17:26.286Z,101219.28
2022-10-04T03:19:53.457Z,101219.56
2022-10-04T03:22:22.982Z,101225.44
2022-10-04T03:24:52.120Z,101226.59
2022-10-04T03:27:38.072Z,101232.13
2022-10-04T03:30:05.626Z,101231.50
2022-10-04T03:32:33.223Z,101232.56
2022-10-04T03:35:02.483Z,101233.91
2022-10-04T03:37:30.791Z,101222.97
2022-10-04T03:39:58.162Z,101229.69
2022-10-04T03:42:34.553Z,101232.28
2022-10-04T03:45:03.089Z,101234.34
2022-10-04T03:47:32.352Z,101235.03
2022-10-04T03:50:03.184Z,101250.22
2022-10-04T03:52:34.988Z,101249.47
2022-10-04T03:55:03.812Z,101245.53
2022-10-04T03:57:31.329Z,101240.91
2022-10-04T03:59:59.057Z,101240.84
2022-10-04T04:02:26.309Z,101247.91
2022-10-04T04:05:04.844Z,101250.41
2022-10-04T04:07:39.160Z,101252.06
2022-10-04T04:10:16.966Z,101245.66
2022-10-04T04:12:47.910Z,101241.25
2022-10-04T04:15:15.985Z,101238.56
2022-10-04T04:17:44.808Z,101251.03
2022-10-04T04:20:30.657Z,101247.41
2022-10-04T04:23:11.030Z,101246.13
2022-10-04T04:25:40.010Z,101246.06
2022-10-04T04:28:20.966Z,101245.06
2022-10-04T04:30:51.137Z,101247.81
2022-10-04T04:33:26.902Z,101247.94
2022-10-04T04:35:55.567Z,101254.06
2022-10-04T04:38:25.965Z,101258.56
2022-10-04T04:40:57.399Z,101261.31
2022-10-04T04:43:26.563Z,101261.41
2022-10-04T04:46:08.883Z,101258.81
2022-10-04T04:48:46.970Z,101266.94
2022-10-04T04:51:24.433Z,101272.31
2022-10-04T04:53:52.995Z,101275.97
2022-10-04T04:56:23.350Z,101270.66
2022-10-04T04:58:51.902Z,101267.22
2022-10-04T05:01:28.299Z,101276.66
2022-10-04T05:04:06.129Z,101274.28
2022-10-04T05:06:34.607Z,101277.38
2022-10-04T05:09:02.233Z,101285.09
2022-10-04T05:11:37.644Z,101292.53
2022-10-04T05:14:07.998Z,101287.91
2022-10-04T05:16:35.164Z,101285.97
2022-10-04T05:19:05.943Z,101287.72
2022-10-04T05:21:34.629Z,101283.78
2022-10-04T05:24:17.733Z,101276.59
2022-10-04T05:26:44.965Z,101289.75
2022-10-04T05:29:15.260Z,101297.16
2022-10-04T05:31:56.271Z,101295.56
2022-10-04T05:34:24.523Z,101301.34
2022-10-04T05:37:06.764Z,101308.72
2022-10-04T05:39:48.230Z,101309.78
2022-10-04T05:42:21.194Z,101308.16
2022-10-04T05:44:55.381Z,101310.22
2022-10-04T05:47:47.407Z,101303.09
2022-10-04T05:50:23.387Z,101304.72
2022-10-04T05:52:51.349Z,101314.03
2022-10-04T05:55:23.723Z,101306.91
2022-10-04T05:57:50.830Z,101308.81
2022-10-04T06:00:20.873Z,101311.59
2022-10-04T06:02:54.931Z,101309.59
2022-10-04T06:05:32.296Z,101310.94
2022-10-04T06:07:59.843Z,101321.06
2022-10-04T06:10:48.561Z,101313.59
2022-10-04T06:13:21.781Z,101314.97
2022-10-04T06:16:03.822Z,101315.91
2022-10-04T06:18:30.933Z,101320.72
2022-10-04T06:21:01.031Z,101322.53
2022-10-04T06:23:30.229Z,101324.47
2022-10-04T06:26:01.099Z,101320.59
2022-10-04T06:28:31.176Z,101326.72
2022-10-04T06:31:18.059Z,101336.34
2022-10-04T06:33:51.185Z,101332.06
2022-10-04T06:36:27.185Z,101339.75
2022-10-04T06:39:09.408Z,101350.38
2022-10-04T06:41:45.698Z,101353.13
2022-10-04T06:44:36.809Z,101358.25
2022-10-04T06:47:03.864Z,101351.44
2022-10-04T06:49:34.952Z,101362.34
2022-10-04T06:52:16.646Z,101360.28
2022-10-04T06:55:03.030Z,101362.69
2022-10-04T06:57:33.168Z,101365.13
2022-10-04T07:00:00.297Z,101363.97
2022-10-04T07:02:32.054Z,101369.22
2022-10-04T07:05:09.881Z,101369.69
2022-10-04T07:07:38.702Z,101372.88
2022-10-04T07:10:05.848Z,101378.44
2022-10-04T07:12:34.508Z,101374.53
2022-10-04T07:15:03.632Z,101379.78
2022-10-04T07:17:36.182Z,101382.47
2022-10-04T07:20:05.242Z,101379.72
2022-10-04T07:22:42.357Z,101388.91
2022-10-04T07:25:19.516Z,101386.94
2022-10-04T07:28:11.553Z,101377.94
2022-10-04T07:30:41.789Z,101383.50
2022-10-04T07:33:13.465Z,101379.38
2022-10-04T07:35:44.950Z,101385.53
2022-10-04T07:38:17.861Z,101391.63
2022-10-04T07:41:03.791Z,101392.56
2022-10-04T07:43:33.121Z,101386.06
2022-10-04T07:46:03.981Z,101394.75
2022-10-04T07:48:31.281Z,101399.50
2022-10-04T07:51:18.606Z,101396.56
2022-10-04T07:53:48.891Z,101405.38
2022-10-04T07:56:19.287Z,101394.38
2022-10-04T07:59:00.502Z,101402.56
2022-10-04T08:01:40.084Z,101399.69
2022-10-04T08:04:13.138Z,101414.28
2022-10-04T08:06:44.148Z,101412.56
2022-10-04T08:09:24.651Z,101416.06
2022-10-04T08:11:54.521Z,101410.13
2022-10-04T08:14:26.820Z,101415.44
2022-10-04T08:16:56.845Z,101415.13
2022-10-04T08:19:26.992Z,101419.66
2022-10-04T08:22:04.189Z,101416.81
2022-10-04T08:24:31.444Z,101413.13
2022-10-04T08:27:05.179Z,101417.22
2022-10-04T08:29:51.042Z,101411.00
2022-10-04T08:32:32.241Z,101410.53
2022-10-04T08:35:05.297Z,101420.63
2022-10-04T08:37:44.429Z,101416.94
2022-10-04T08:40:35.794Z,101413.41
2022-10-04T08:43:19.612Z,101417.34
2022-10-04T08:45:56.474Z,101419.75
2022-10-04T08:48:33.080Z,101424.41
2022-10-04T08:51:15.614Z,101419.25
2022-10-04T08:53:48.817Z,101419.53
2022-10-04T08:56:21.402Z,101421.53
2022-10-04T08:58:51.771Z,101419.41
2022-10-04T09:01:25.536Z,101418.47
2022-10-04T09:04:11.143Z,101422.81
2022-10-04T09:06:38.291Z,101424.91
2022-10-04T09:09:24.145Z,101411.22
2022-10-04T09:12:03.728Z,101413.94
2022-10-04T09:14:46.376Z,101419.25
2022-10-04T09:17:21.764Z,101417.59
2022-10-04T09:20:26.128Z,101417.03
2022-10-04T09:23:02.811Z,101417.47
2022-10-04T09:25:52.905Z,101413.81
2022-10-04T09:28:26.246Z,101417.84
2022-10-04T09:30:56.689Z,101421.16
2022-10-04T09:33:33.246Z,101421.50
2022-10-04T09:36:03.108Z,101422.19
2022-10-04T09:39:17.860Z,101421.41
2022-10-04T09:41:42.565Z,101419.75
2022-10-04T09:44:18.841Z,101420.34
2022-10-04T09:47:03.504Z,101423.34
2022-10-04T09:49:45.621Z,101411.31
2022-10-04T09:52:31.264Z,101414.34
2022-10-04T09:55:17.052Z,101415.56
2022-10-04T09:57:44.154Z,101407.28
2022-10-04T10:00:18.604Z,101404.38
2022-10-04T10:02:55.068Z,101408.13
2022-10-04T10:05:28.307Z,101413.75
2022-10-04T10:08:13.567Z,101412.63
2022-10-04T10:11:02.569Z,101413.75
2022-10-04T10:13:52.917Z,101419.69
2022-10-04T10:16:32.066Z,101429.63
2022-10-04T10:19:15.251Z,101419.44
2022-10-04T10:21:50.378Z,101416.91
2022-10-04T10:24:36.220Z,101416.63
2022-10-04T10:27:07.276Z,101416.00
2022-10-04T10:29:37.278Z,101419.75
2022-10-04T10:32:22.882Z,101423.88
2022-10-04T10:35:09.478Z,101425.09
2022-10-04T10:37:36.627Z,101414.53
2022-10-04T10:40:22.530Z,101428.94
2022-10-04T10:42:59.866Z,101416.72
2022-10-04T10:45:36.149Z,101416.91
2022-10-04T10:48:06.379Z,101418.81
2022-10-04T10:51:03.421Z,101413.47
2022-10-04T10:53:49.476Z,101413.28
2022-10-04T10:56:30.059Z,101413.38
2022-10-04T10:59:16.245Z,101410.66
2022-10-04T11:01:57.108Z,101421.06
2022-10-04T11:04:42.922Z,101417.63
2022-10-04T11:07:10.342Z,101421.06
2022-10-04T11:09:37.554Z,101408.81
2022-10-04T11:12:07.744Z,101413.94
2022-10-04T11:14:35.025Z,101409.03
2022-10-04T11:17:04.043Z,101411.66
2022-10-04T11:19:50.347Z,101416.19
2022-10-04T11:22:49.397Z,101410.09
2022-10-04T11:25:16.488Z,101413.25
2022-10-04T11:27:59.022Z,101410.03
2022-10-04T11:30:27.168Z,101412.56
2022-10-04T11:33:30.033Z,101420.78
2022-10-04T11:36:19.007Z,101411.34
2022-10-04T11:38:58.465Z,101413.72
2022-10-04T11:41:44.329Z,101415.34
2022-10-04T11:44:24.496Z,101407.13
2022-10-04T11:47:18.276Z,101412.00
2022-10-04T11:49:49.067Z,101415.53
2022-10-04T11:52:19.771Z,101416.41
2022-10-04T11:54:58.818Z,101413.38
2022-10-04T11:57:43.069Z,101403.72
2022-10-04T12:00:21.711Z,101406.34
2022-10-04T12:03:10.894Z,101407.88
2022-10-04T12:05:38.430Z,101407.97
2022-10-04T12:08:24.280Z,101402.56
2022-10-04T12:11:06.455Z,101396.00
2022-10-04T12:13:33.590Z,101405.25
2022-10-04T12:16:00.931Z,101403.72
2022-10-04T12:18:43.293Z,101404.03
2022-10-04T12:21:46.023Z,101406.34
2022-10-04T12:24:22.089Z,101398.53
2022-10-04T12:26:49.354Z,101402.88
2022-10-04T12:29:25.517Z,101408.94
2022-10-04T12:31:55.761Z,101405.06
2022-10-04T12:34:28.682Z,101395.81
2022-10-04T12:37:02.750Z,101395.16
2022-10-04T12:39:37.125Z,101397.50
2022-10-04T12:42:28.176Z,101391.22
2022-10-04T12:45:17.651Z,101383.78
2022-10-04T12:47:57.041Z,101384.72
2022-10-04T12:50:50.330Z,101384.81
2022-10-04T12:53:17.480Z,101392.09
2022-10-04T12:56:03.160Z,101388.00
2022-10-04T12:58:39.086Z,101389.84
2022-10-04T13:01:41.676Z,101389.94
2022-10-04T13:04:14.569Z,101385.19
2022-10-04T13:06:43.711Z,101384.31
2022-10-04T13:09:17.823Z,101383.25
2022-10-04T13:11:50.053Z,101386.94
2022-10-04T13:14:36.014Z,101379.97
2022-10-04T13:17:30.275Z,101376.19
2022-10-04T13:20:20.434Z,101379.66
2022-10-04T13:22:57.727Z,101375.13
2022-10-04T13:25:27.980Z,101376.84
2022-10-04T13:28:01.309Z,101373.56
2022-10-04T13:30:28.424Z,101368.31
2022-10-04T13:33:14.196Z,101378.13
2022-10-04T13:35:48.574Z,101373.16
2022-10-04T13:38:24.106Z,101371.88
2022-10-04T13:41:11.611Z,101368.41
2022-10-04T13:43:41.647Z,101363.66
2022-10-04T13:46:09.102Z,101362.69
2022-10-04T13:48:46.506Z,101357.16
2022-10-04T13:51:17.424Z,101355.34
2022-10-04T13:54:12.129Z,101357.50
2022-10-04T13:56:57.829Z,101353.72
2022-10-04T13:59:40.973Z,101352.50
2022-10-04T14:02:26.856Z,101350.56
2022-10-04T14:05:20.151Z,101361.03
2022-10-04T14:08:06.125Z,101356.75
2022-10-04T14:10:42.873Z,101362.16
2022-10-04T14:13:28.825Z,101359.66
2022-10-04T14:16:02.093Z,101358.00
2022-10-04T14:18:41.477Z,101351.44
2022-10-04T14:21:34.827Z,101355.78
2022-10-04T14:24:21.046Z,101360.16
2022-10-04T14:26:54.238Z,101358.38
2022-10-04T14:29:24.146Z,101354.03
2022-10-04T14:32:05.910Z,101356.06
2022-10-04T14:34:36.092Z,101359.81
2022-10-04T14:37:37.378Z,101353.13
2022-10-04T14:40:04.511Z,101356.53
2022-10-04T14:42:54.727Z,101351.97
2022-10-04T14:45:25.149Z,101344.47
2022-10-04T14:48:26.695Z,101352.09
2022-10-04T14:50:57.844Z,101351.44
2022-10-04T14:53:35.212Z,101356.38
2022-10-04T14:56:16.719Z,101350.25
2022-10-04T14:59:02.509Z,101348.81
2022-10-04T15:01:30.020Z,101353.34
2022-10-04T15:04:26.543Z,101347.16
2022-10-04T15:07:15.866Z,101346.19
2022-10-04T15:09:57.945Z,101344.53
2022-10-04T15:12:40.761Z,101352.94
2022-10-04T15:15:16.667Z,101347.78
2022-10-04T15:17:55.496Z,101356.78
2022-10-04T15:20:25.397Z,101356.78
2022-10-04T15:22:55.773Z,101353.19
2022-10-04T15:26:01.458Z,101355.22
2022-10-04T15:28:33.129Z,101342.66
2022-10-04T15:31:11.594Z,101347.97
2022-10-04T15:33:41.557Z,101349.72
2022-10-04T15:36:25.939Z,101352.25
2022-10-04T15:38:57.145Z,101354.88
2022-10-04T15:41:24.331Z,101351.00
2022-10-04T15:44:16.825Z,101350.81
2022-10-04T15:47:02.855Z,101360.63
2022-10-04T15:49:30.062Z,101364.53
2022-10-04T15:52:12.593Z,101362.44
2022-10-04T15:54:42.519Z,101370.72
2022-10-04T15:57:23.327Z,101371.44
2022-10-04T15:59:53.701Z,101377.72
2022-10-04T16:02:36.130Z,101378.59
2022-10-04T16:05:14.151Z,101379.47
2022-10-04T16:07:52.689Z,101374.16
2022-10-04T16:10:26.649Z,101387.78
2022-10-04T16:13:00.037Z,101376.06
2022-10-04T16:15:37.234Z,101388.56
2022-10-04T16:18:07.466Z,101390.50
2022-10-04T16:20:39.565Z,101386.97
2022-10-04T16:23:21.995Z,101388.13
2022-10-04T16:25:49.702Z,101391.03
2022-10-04T16:28:34.925Z,101394.69
2022-10-04T16:31:21.507Z,101395.28
2022-10-04T16:33:55.338Z,101405.16
2022-10-04T16:36:25.379Z,101407.34
2022-10-04T16:39:13.400Z,101406.56
2022-10-04T16:41:53.038Z,101409.28
2022-10-04T16:44:43.163Z,101417.31
2022-10-04T16:47:40.583Z,101420.47
2022-10-04T16:50:13.097Z,101426.25
2022-10-04T16:53:04.399Z,101432.81
2022-10-04T16:55:50.989Z,101439.97
2022-10-04T16:58:27.258Z,101440.38
2022-10-04T17:01:13.344Z,101441.78
2022-10-04T17:03:47.883Z,101443.69
2022-10-04T17:06:16.206Z,101441.56
2022-10-04T17:08:49.772Z,101448.91
2022-10-04T17:11:35.761Z,101456.34
2022-10-04T17:14:21.922Z,101460.00
2022-10-04T17:17:01.371Z,101457.13
2022-10-04T17:19:39.500Z,101466.44
2022-10-04T17:22:21.996Z,101472.13
2022-10-04T17:24:52.009Z,101477.53
2022-10-04T17:27:22.547Z,101474.38
2022-10-04T17:29:53.716Z,101479.50
2022-10-04T17:32:24.658Z,101486.75
2022-10-04T17:35:09.851Z,101491.38
2022-10-04T17:37:36.932Z,101499.13
2022-10-04T17:40:24.125Z,101500.94
2022-10-04T17:43:09.730Z,101488.69
2022-10-04T17:45:45.807Z,101496.03
2022-10-04T17:48:52.229Z,101502.53
2022-10-04T17:51:41.395Z,101503.50
2022-10-04T17:54:32.472Z,101506.03
2022-10-04T17:56:59.958Z,101507.78
2022-10-04T17:59:31.008Z,101510.81
2022-10-04T18:02:09.655Z,101522.03
2022-10-04T18:04:39.920Z,101523.06
2022-10-04T18:07:16.482Z,101525.28
2022-10-04T18:09:47.900Z,101525.09
2022-10-04T18:12:35.322Z,101531.03
2022-10-04T18:15:15.206Z,101530.09
2022-10-04T18:17:46.334Z,101534.09
2022-10-04T18:20:27.760Z,101537.50
2022-10-04T18:23:13.856Z,101538.28
2022-10-04T18:25:41.813Z,101535.75
2022-10-04T18:28:08.980Z,101543.88
2022-10-04T18:30:49.040Z,101550.16
2022-10-04T18:33:17.532Z,101538.28
2022-10-04T18:35:52.145Z,101548.88
2022-10-04T18:38:27.517Z,101547.41
2022-10-04T18:40:57.098Z,101548.59
2022-10-04T18:43:27.556Z,101552.41
2022-10-04T18:46:02.821Z,101561.13
2022-10-04T18:49:02.941Z,101555.81
2022-10-04T18:51:36.247Z,101560.84
2022-10-04T18:54:21.022Z,101564.44
2022-10-04T18:56:48.918Z,101568.16
2022-10-04T18:59:54.099Z,101570.06
2022-10-04T19:02:36.855Z,101575.59
2022-10-04T19:05:14.686Z,101572.53
2022-10-04T19:07:59.686Z,101574.84
2022-10-04T19:10:27.447Z,101578.59
2022-10-04T19:13:13.274Z,101579.44
2022-10-04T19:15:40.914Z,101590.63
2022-10-04T19:18:08.624Z,101592.53
2022-10-04T19:20:41.906Z,101585.13
2022-10-04T19:23:15.980Z,101590.09
2022-10-04T19:26:09.783Z,101591.63
2022-10-04T19:28:36.429Z,101592.66
2022-10-04T19:31:12.624Z,101599.16
2022-10-04T19:33:40.135Z,101606.47
2022-10-04T19:36:20.082Z,101605.50
2022-10-04T19:38:56.303Z,101611.56
2022-10-04T19:41:42.637Z,101601.41
2022-10-04T19:44:16.165Z,101606.88
2022-10-04T19:46:46.833Z,101611.69
2022-10-04T19:49:20.989Z,101609.22
2022-10-04T19:51:52.501Z,101613.69
2022-10-04T19:54:28.112Z,101616.53
2022-10-04T19:56:57.198Z,101615.00
2022-10-04T19:59:27.400Z,101615.16
2022-10-04T20:01:55.081Z,101611.59
2022-10-04T20:04:42.877Z,101613.84
2022-10-04T20:07:25.167Z,101617.63
2022-10-04T20:09:57.623Z,101621.59
2022-10-04T20:12:36.053Z,101617.78
2022-10-04T20:15:34.774Z,101626.22
2022-10-04T20:18:03.592Z,101627.91
2022-10-04T20:20:43.310Z,101630.31
2022-10-04T20:23:12.339Z,101641.19
2022-10-04T20:25:46.257Z,101645.56
2022-10-04T20:28:29.255Z,101650.47
2022-10-04T20:30:58.830Z,101651.50
2022-10-04T20:33:37.245Z,101656.00
2022-10-04T20:36:09.439Z,101655.81
2022-10-04T20:38:52.493Z,101659.31
2022-10-04T20:41:29.444Z,101661.75
2022-10-04T20:44:07.588Z,101662.59
2022-10-04T20:46:38.605Z,101662.41
2022-10-04T20:49:15.284Z,101667.09
2022-10-04T20:51:49.274Z,101664.75
2022-10-04T20:54:17.332Z,101663.50
2022-10-04T20:56:49.506Z,101666.28
2022-10-04T20:59:17.647Z,101673.66
2022-10-04T21:02:00.837Z,101685.44
2022-10-04T21:04:42.673Z,101685.72
2022-10-04T21:07:13.767Z,101682.75
2022-10-04T21:09:41.681Z,101692.63
2022-10-04T21:12:29.142Z,101690.72
2022-10-04T21:15:14.654Z,101691.75
2022-10-04T21:17:42.371Z,101695.44
2022-10-04T21:20:35.592Z,101694.22
2022-10-04T21:23:17.569Z,101690.97
2022-10-04T21:25:44.766Z,101696.44
2022-10-04T21:28:29.608Z,101699.38
2022-10-04T21:30:57.056Z,101703.13
2022-10-04T21:33:24.141Z,101705.97
2022-10-04T21:35:52.032Z,101703.34
2022-10-04T21:38:19.240Z,101710.59
2022-10-04T21:40:46.393Z,101714.16
2022-10-04T21:43:13.547Z,101721.19
2022-10-04T21:45:40.643Z,101718.50
2022-10-04T21:48:07.849Z,101709.22
2022-10-04T21:50:35.033Z,101719.28
2022-10-04T21:53:02.140Z,101722.16
2022-10-04T21:55:29.247Z,101729.03
2022-10-04T21:57:56.450Z,101726.84
2022-10-04T22:00:24.331Z,101727.88
2022-10-04T22:02:51.518Z,101741.03
2022-10-04T22:05:18.565Z,101738.00
2022-10-04T22:07:45.715Z,101736.44
2022-10-04T22:10:12.994Z,101739.88
2022-10-04T22:12:40.112Z,101739.75
2022-10-04T22:15:07.721Z,101733.75
2022-10-04T22:17:34.820Z,101732.00
2022-10-04T22:20:01.928Z,101738.53
2022-10-04T22:22:31.021Z,101740.63
2022-10-04T22:24:58.481Z,101738.28
2022-10-04T22:27:26.545Z,101736.50
2022-10-04T22:29:54.737Z,101739.00
2022-10-04T22:32:26.376Z,101729.56
2022-10-04T22:35:10.432Z,101738.00
2022-10-04T22:37:37.489Z,101737.41
2022-10-04T22:40:04.828Z,101740.81
2022-10-04T22:42:32.033Z,101748.25
2022-10-04T22:45:01.371Z,101743.03
2022-10-04T22:47:28.764Z,101745.00
2022-10-04T22:49:57.610Z,101743.44
2022-10-04T22:52:25.783Z,101748.66
2022-10-04T22:54:53.608Z,101746.75
2022-10-04T22:57:20.778Z,101739.59
2022-10-04T22:59:49.421Z,101739.84
2022-10-04T23:02:20.469Z,101729.47
2022-10-04T23:04:52.075Z,101730.00
2022-10-04T23:07:19.994Z,101726.56
2022-10-04T23:09:47.365Z,101729.91
2022-10-04T23:12:14.424Z,101730.88
2022-10-04T23:14:41.865Z,101727.44
2022-10-04T23:17:27.654Z,101726.16
2022-10-04T23:19:56.503Z,101725.19
2022-10-04T23:22:27.191Z,101727.50
2022-10-04T23:24:55.319Z,101727.91
2022-10-04T23:27:22.905Z,101737.94
2022-10-04T23:29:58.262Z,101739.03
2022-10-04T23:32:25.790Z,101743.72
2022-10-04T23:34:56.633Z,101739.47
2022-10-04T23:37:30.714Z,101736.34
2022-10-04T23:39:58.272Z,101745.81
2022-10-04T23:42:30.964Z,101739.38
2022-10-04T23:45:01.767Z,101739.97
2022-10-04T23:47:34.150Z,101749.69
2022-10-04T23:50:01.481Z,101741.28
2022-10-04T23:52:35.735Z,101745.66
2022-10-04T23:55:02.904Z,101733.28
2022-10-04T23:57:31.177Z,101739.53
2022-10-04T23:59:59.515Z,101738.06
